sensor_id;sensor_type;location;lat;lon;timestamp;P1;durP1;ratioP1;P2;durP2;ratioP2
27161;SDS011;54464;50.558;9.704;2023-01-28T00:01:10;5.60;;;4.80;;
27161;SDS011;54464;50.558;9.704;2023-01-28T00:03:37;5.27;;;4.30;;
27161;SDS011;54464;50.558;9.704;2023-01-28T00:06:05;5.10;;;4.60;;
27161;SDS011;54464;50.558;9.704;2023-01-28T00:08:32;6.37;;;4.13;;
27161;SDS011;54464;50.558;9.704;2023-01-28T00:11:02;5.10;;;4.60;;
27161;SDS011;54464;50.558;9.704;2023-01-28T00:13:29;6.23;;;4.47;;
27161;SDS011;54464;50.558;9.704;2023-01-28T00:15:59;5.80;;;5.20;;
27161;SDS011;54464;50.558;9.704;2023-01-28T00:18:26;7.20;;;4.50;;
27161;SDS011;54464;50.558;9.704;2023-01-28T00:20:59;6.90;;;4.93;;
27161;SDS011;54464;50.558;9.704;2023-01-28T00:23:27;5.13;;;4.57;;
27161;SDS011;54464;50.558;9.704;2023-01-28T00:25:58;5.60;;;4.40;;
27161;SDS011;54464;50.558;9.704;2023-01-28T00:28:24;5.93;;;4.43;;
27161;SDS011;54464;50.558;9.704;2023-01-28T00:30:50;6.37;;;4.90;;
27161;SDS011;54464;50.558;9.704;2023-01-28T00:33:16;5.27;;;4.77;;
27161;SDS011;54464;50.558;9.704;2023-01-28T00:35:41;5.80;;;5.20;;
27161;SDS011;54464;50.558;9.704;2023-01-28T00:38:07;5.10;;;4.60;;
27161;SDS011;54464;50.558;9.704;2023-01-28T00:40:33;8.20;;;5.10;;
27161;SDS011;54464;50.558;9.704;2023-01-28T00:42:59;5.87;;;4.80;;
27161;SDS011;54464;50.558;9.704;2023-01-28T00:45:25;5.77;;;5.17;;
27161;SDS011;54464;50.558;9.704;2023-01-28T00:47:50;5.27;;;4.77;;
27161;SDS011;54464;50.558;9.704;2023-01-28T00:50:16;5.87;;;4.60;;
27161;SDS011;54464;50.558;9.704;2023-01-28T00:52:42;5.70;;;4.93;;
27161;SDS011;54464;50.558;9.704;2023-01-28T00:55:08;5.70;;;5.20;;
27161;SDS011;54464;50.558;9.704;2023-01-28T00:57:34;6.00;;;5.07;;
27161;SDS011;54464;50.558;9.704;2023-01-28T00:59:59;5.37;;;4.87;;
27161;SDS011;54464;50.558;9.704;2023-01-28T01:02:25;5.73;;;4.50;;
27161;SDS011;54464;50.558;9.704;2023-01-28T01:04:51;7.50;;;5.17;;
27161;SDS011;54464;50.558;9.704;2023-01-28T01:07:24;6.50;;;5.20;;
27161;SDS011;54464;50.558;9.704;2023-01-28T01:09:59;6.93;;;5.23;;
27161;SDS011;54464;50.558;9.704;2023-01-28T01:12:25;8.57;;;5.83;;
27161;SDS011;54464;50.558;9.704;2023-01-28T01:14:51;7.80;;;5.43;;
27161;SDS011;54464;50.558;9.704;2023-01-28T01:17:17;6.60;;;5.90;;
27161;SDS011;54464;50.558;9.704;2023-01-28T01:19:43;7.23;;;5.43;;
27161;SDS011;54464;50.558;9.704;2023-01-28T01:22:27;7.20;;;5.30;;
27161;SDS011;54464;50.558;9.704;2023-01-28T01:25:31;6.03;;;5.33;;
27161;SDS011;54464;50.558;9.704;2023-01-28T01:27:56;6.40;;;4.97;;
27161;SDS011;54464;50.558;9.704;2023-01-28T01:30:22;5.67;;;5.17;;
27161;SDS011;54464;50.558;9.704;2023-01-28T01:32:48;6.10;;;5.50;;
27161;SDS011;54464;50.558;9.704;2023-01-28T01:35:14;6.33;;;5.40;;
27161;SDS011;54464;50.558;9.704;2023-01-28T01:37:42;6.13;;;5.20;;
27161;SDS011;54464;50.558;9.704;2023-01-28T01:40:09;5.77;;;5.10;;
27161;SDS011;54464;50.558;9.704;2023-01-28T01:42:35;6.90;;;5.43;;
27161;SDS011;54464;50.558;9.704;2023-01-28T01:45:09;6.13;;;5.53;;
27161;SDS011;54464;50.558;9.704;2023-01-28T01:50:15;5.70;;;5.20;;
27161;SDS011;54464;50.558;9.704;2023-01-28T01:52:51;5.70;;;5.20;;
27161;SDS011;54464;50.558;9.704;2023-01-28T01:55:23;5.70;;;5.20;;
27161;SDS011;54464;50.558;9.704;2023-01-28T01:57:51;5.80;;;5.30;;
27161;SDS011;54464;50.558;9.704;2023-01-28T02:00:19;5.57;;;5.07;;
27161;SDS011;54464;50.558;9.704;2023-01-28T02:02:46;6.07;;;5.57;;
27161;SDS011;54464;50.558;9.704;2023-01-28T02:05:16;5.90;;;5.27;;
27161;SDS011;54464;50.558;9.704;2023-01-28T02:07:44;7.93;;;5.60;;
27161;SDS011;54464;50.558;9.704;2023-01-28T02:10:11;7.30;;;5.10;;
27161;SDS011;54464;50.558;9.704;2023-01-28T02:12:49;6.33;;;5.30;;
27161;SDS011;54464;50.558;9.704;2023-01-28T02:15:21;8.20;;;6.07;;
27161;SDS011;54464;50.558;9.704;2023-01-28T02:17:49;6.93;;;5.77;;
27161;SDS011;54464;50.558;9.704;2023-01-28T02:20:20;7.73;;;5.90;;
27161;SDS011;54464;50.558;9.704;2023-01-28T02:28:36;7.67;;;6.50;;
27161;SDS011;54464;50.558;9.704;2023-01-28T02:31:07;8.17;;;7.03;;
27161;SDS011;54464;50.558;9.704;2023-01-28T02:33:41;8.23;;;6.97;;
27161;SDS011;54464;50.558;9.704;2023-01-28T02:36:23;7.67;;;6.60;;
27161;SDS011;54464;50.558;9.704;2023-01-28T02:38:52;7.27;;;6.20;;
27161;SDS011;54464;50.558;9.704;2023-01-28T02:41:22;7.93;;;6.83;;
27161;SDS011;54464;50.558;9.704;2023-01-28T02:43:55;8.20;;;7.40;;
27161;SDS011;54464;50.558;9.704;2023-01-28T02:49:12;8.90;;;6.87;;
27161;SDS011;54464;50.558;9.704;2023-01-28T03:00:17;8.07;;;7.27;;
27161;SDS011;54464;50.558;9.704;2023-01-28T03:02:56;7.77;;;6.50;;
27161;SDS011;54464;50.558;9.704;2023-01-28T03:05:30;9.47;;;6.63;;
27161;SDS011;54464;50.558;9.704;2023-01-28T03:08:00;8.83;;;7.13;;
27161;SDS011;54464;50.558;9.704;2023-01-28T03:10:48;7.60;;;6.80;;
27161;SDS011;54464;50.558;9.704;2023-01-28T03:13:34;9.10;;;6.53;;
27161;SDS011;54464;50.558;9.704;2023-01-28T03:16:19;7.73;;;6.53;;
27161;SDS011;54464;50.558;9.704;2023-01-28T03:19:03;11.27;;;7.43;;
27161;SDS011;54464;50.558;9.704;2023-01-28T03:21:47;7.03;;;6.23;;
27161;SDS011;54464;50.558;9.704;2023-01-28T03:24:34;10.93;;;7.17;;
27161;SDS011;54464;50.558;9.704;2023-01-28T03:27:33;9.23;;;6.63;;
27161;SDS011;54464;50.558;9.704;2023-01-28T03:30:38;7.73;;;6.80;;
27161;SDS011;54464;50.558;9.704;2023-01-28T03:33:30;10.97;;;6.27;;
27161;SDS011;54464;50.558;9.704;2023-01-28T03:36:16;7.70;;;6.40;;
27161;SDS011;54464;50.558;9.704;2023-01-28T03:39:00;11.23;;;7.37;;
27161;SDS011;54464;50.558;9.704;2023-01-28T03:41:26;10.43;;;6.57;;
27161;SDS011;54464;50.558;9.704;2023-01-28T03:43:55;9.73;;;6.37;;
27161;SDS011;54464;50.558;9.704;2023-01-28T03:46:21;9.77;;;6.83;;
27161;SDS011;54464;50.558;9.704;2023-01-28T03:48:46;8.07;;;6.40;;
27161;SDS011;54464;50.558;9.704;2023-01-28T03:51:12;9.27;;;7.17;;
27161;SDS011;54464;50.558;9.704;2023-01-28T03:53:38;7.73;;;6.10;;
27161;SDS011;54464;50.558;9.704;2023-01-28T03:56:04;7.63;;;6.10;;
27161;SDS011;54464;50.558;9.704;2023-01-28T03:58:30;9.43;;;5.97;;
27161;SDS011;54464;50.558;9.704;2023-01-28T04:01:18;8.57;;;6.30;;
27161;SDS011;54464;50.558;9.704;2023-01-28T04:03:44;8.07;;;6.00;;
27161;SDS011;54464;50.558;9.704;2023-01-28T04:06:10;7.67;;;5.80;;
27161;SDS011;54464;50.558;9.704;2023-01-28T04:08:35;8.80;;;5.87;;
27161;SDS011;54464;50.558;9.704;2023-01-28T04:11:01;8.17;;;5.73;;
27161;SDS011;54464;50.558;9.704;2023-01-28T04:13:42;8.57;;;6.10;;
27161;SDS011;54464;50.558;9.704;2023-01-28T04:16:12;6.47;;;5.60;;
27161;SDS011;54464;50.558;9.704;2023-01-28T04:18:39;7.13;;;5.67;;
27161;SDS011;54464;50.558;9.704;2023-01-28T04:21:04;7.03;;;6.13;;
27161;SDS011;54464;50.558;9.704;2023-01-28T04:23:30;9.53;;;6.10;;
27161;SDS011;54464;50.558;9.704;2023-01-28T04:25:56;7.00;;;5.60;;
27161;SDS011;54464;50.558;9.704;2023-01-28T04:28:22;8.00;;;6.13;;
27161;SDS011;54464;50.558;9.704;2023-01-28T04:30:47;9.03;;;6.10;;
27161;SDS011;54464;50.558;9.704;2023-01-28T04:33:13;8.47;;;6.37;;
27161;SDS011;54464;50.558;9.704;2023-01-28T04:35:39;7.67;;;5.87;;
27161;SDS011;54464;50.558;9.704;2023-01-28T04:38:04;6.50;;;5.67;;
27161;SDS011;54464;50.558;9.704;2023-01-28T04:40:30;7.03;;;5.87;;
27161;SDS011;54464;50.558;9.704;2023-01-28T04:42:56;9.60;;;6.20;;
27161;SDS011;54464;50.558;9.704;2023-01-28T04:45:22;8.13;;;6.57;;
27161;SDS011;54464;50.558;9.704;2023-01-28T04:47:48;8.37;;;6.03;;
27161;SDS011;54464;50.558;9.704;2023-01-28T04:50:14;9.00;;;6.03;;
27161;SDS011;54464;50.558;9.704;2023-01-28T04:52:40;10.10;;;6.17;;
27161;SDS011;54464;50.558;9.704;2023-01-28T04:55:06;7.57;;;5.97;;
27161;SDS011;54464;50.558;9.704;2023-01-28T04:57:33;7.53;;;5.67;;
27161;SDS011;54464;50.558;9.704;2023-01-28T04:59:59;9.43;;;5.90;;
27161;SDS011;54464;50.558;9.704;2023-01-28T05:02:24;9.70;;;6.63;;
27161;SDS011;54464;50.558;9.704;2023-01-28T05:04:50;9.40;;;6.23;;
27161;SDS011;54464;50.558;9.704;2023-01-28T05:07:15;7.30;;;5.87;;
27161;SDS011;54464;50.558;9.704;2023-01-28T05:09:41;7.07;;;5.50;;
27161;SDS011;54464;50.558;9.704;2023-01-28T05:12:07;7.50;;;5.50;;
27161;SDS011;54464;50.558;9.704;2023-01-28T05:14:32;8.07;;;5.83;;
27161;SDS011;54464;50.558;9.704;2023-01-28T05:16:58;6.03;;;4.90;;
27161;SDS011;54464;50.558;9.704;2023-01-28T05:19:26;9.77;;;5.23;;
27161;SDS011;54464;50.558;9.704;2023-01-28T05:21:52;6.90;;;4.23;;
27161;SDS011;54464;50.558;9.704;2023-01-28T05:24:18;6.97;;;4.30;;
27161;SDS011;54464;50.558;9.704;2023-01-28T05:26:45;4.80;;;3.80;;
27161;SDS011;54464;50.558;9.704;2023-01-28T05:29:11;5.63;;;4.30;;
27161;SDS011;54464;50.558;9.704;2023-01-28T05:31:36;5.43;;;4.60;;
27161;SDS011;54464;50.558;9.704;2023-01-28T05:34:02;5.10;;;3.90;;
27161;SDS011;54464;50.558;9.704;2023-01-28T05:36:27;4.77;;;4.33;;
27161;SDS011;54464;50.558;9.704;2023-01-28T05:38:53;5.30;;;4.60;;
27161;SDS011;54464;50.558;9.704;2023-01-28T05:41:19;6.30;;;4.17;;
27161;SDS011;54464;50.558;9.704;2023-01-28T05:43:44;5.90;;;4.20;;
27161;SDS011;54464;50.558;9.704;2023-01-28T05:46:10;7.33;;;4.70;;
27161;SDS011;54464;50.558;9.704;2023-01-28T05:48:35;4.83;;;4.03;;
27161;SDS011;54464;50.558;9.704;2023-01-28T05:51:01;6.70;;;4.17;;
27161;SDS011;54464;50.558;9.704;2023-01-28T05:53:29;6.00;;;3.50;;
27161;SDS011;54464;50.558;9.704;2023-01-28T05:55:54;5.97;;;3.60;;
27161;SDS011;54464;50.558;9.704;2023-01-28T05:58:20;5.23;;;3.70;;
27161;SDS011;54464;50.558;9.704;2023-01-28T06:00:46;5.67;;;3.67;;
27161;SDS011;54464;50.558;9.704;2023-01-28T06:03:12;3.70;;;3.13;;
27161;SDS011;54464;50.558;9.704;2023-01-28T06:05:37;5.77;;;3.73;;
27161;SDS011;54464;50.558;9.704;2023-01-28T06:08:03;4.83;;;2.97;;
27161;SDS011;54464;50.558;9.704;2023-01-28T06:10:30;4.10;;;3.27;;
27161;SDS011;54464;50.558;9.704;2023-01-28T06:12:55;4.27;;;3.27;;
27161;SDS011;54464;50.558;9.704;2023-01-28T06:15:21;4.33;;;3.40;;
27161;SDS011;54464;50.558;9.704;2023-01-28T06:17:47;3.97;;;3.03;;
27161;SDS011;54464;50.558;9.704;2023-01-28T06:20:13;3.33;;;3.03;;
27161;SDS011;54464;50.558;9.704;2023-01-28T06:22:39;3.90;;;3.00;;
27161;SDS011;54464;50.558;9.704;2023-01-28T06:25:04;4.50;;;3.33;;
27161;SDS011;54464;50.558;9.704;2023-01-28T06:27:31;3.80;;;2.97;;
27161;SDS011;54464;50.558;9.704;2023-01-28T06:29:56;3.57;;;3.23;;
27161;SDS011;54464;50.558;9.704;2023-01-28T06:32:22;3.83;;;3.37;;
27161;SDS011;54464;50.558;9.704;2023-01-28T06:34:47;6.53;;;3.43;;
27161;SDS011;54464;50.558;9.704;2023-01-28T06:37:13;5.57;;;3.77;;
27161;SDS011;54464;50.558;9.704;2023-01-28T06:39:39;4.63;;;3.67;;
27161;SDS011;54464;50.558;9.704;2023-01-28T06:42:05;4.23;;;3.40;;
27161;SDS011;54464;50.558;9.704;2023-01-28T06:44:30;6.30;;;3.20;;
27161;SDS011;54464;50.558;9.704;2023-01-28T06:46:56;4.33;;;3.10;;
27161;SDS011;54464;50.558;9.704;2023-01-28T06:49:22;3.40;;;3.00;;
27161;SDS011;54464;50.558;9.704;2023-01-28T06:51:48;3.87;;;3.23;;
27161;SDS011;54464;50.558;9.704;2023-01-28T06:54:13;3.57;;;2.87;;
27161;SDS011;54464;50.558;9.704;2023-01-28T06:56:39;3.97;;;3.00;;
27161;SDS011;54464;50.558;9.704;2023-01-28T06:59:05;4.43;;;3.10;;
27161;SDS011;54464;50.558;9.704;2023-01-28T07:01:30;4.27;;;3.87;;
27161;SDS011;54464;50.558;9.704;2023-01-28T07:03:57;3.80;;;3.37;;
27161;SDS011;54464;50.558;9.704;2023-01-28T07:06:23;4.27;;;3.47;;
27161;SDS011;54464;50.558;9.704;2023-01-28T07:08:55;5.40;;;3.23;;
27161;SDS011;54464;50.558;9.704;2023-01-28T07:11:23;4.57;;;4.13;;
27161;SDS011;54464;50.558;9.704;2023-01-28T07:13:49;6.17;;;4.67;;
27161;SDS011;54464;50.558;9.704;2023-01-28T07:16:15;4.43;;;4.03;;
27161;SDS011;54464;50.558;9.704;2023-01-28T07:18:41;5.07;;;3.83;;
27161;SDS011;54464;50.558;9.704;2023-01-28T07:21:07;4.63;;;3.80;;
27161;SDS011;54464;50.558;9.704;2023-01-28T07:23:32;5.77;;;3.80;;
27161;SDS011;54464;50.558;9.704;2023-01-28T07:26:01;4.23;;;3.83;;
27161;SDS011;54464;50.558;9.704;2023-01-28T07:28:27;4.37;;;3.67;;
27161;SDS011;54464;50.558;9.704;2023-01-28T07:30:53;4.40;;;3.73;;
27161;SDS011;54464;50.558;9.704;2023-01-28T07:33:19;4.97;;;3.70;;
27161;SDS011;54464;50.558;9.704;2023-01-28T07:35:45;4.80;;;3.53;;
27161;SDS011;54464;50.558;9.704;2023-01-28T07:38:11;4.37;;;3.27;;
27161;SDS011;54464;50.558;9.704;2023-01-28T07:40:37;4.93;;;3.37;;
27161;SDS011;54464;50.558;9.704;2023-01-28T07:43:09;4.23;;;3.30;;
27161;SDS011;54464;50.558;9.704;2023-01-28T07:45:35;3.37;;;2.93;;
27161;SDS011;54464;50.558;9.704;2023-01-28T07:48:03;3.50;;;3.17;;
27161;SDS011;54464;50.558;9.704;2023-01-28T07:50:32;6.00;;;3.60;;
27161;SDS011;54464;50.558;9.704;2023-01-28T07:53:01;4.10;;;2.90;;
27161;SDS011;54464;50.558;9.704;2023-01-28T07:55:28;4.43;;;3.30;;
27161;SDS011;54464;50.558;9.704;2023-01-28T07:57:54;4.67;;;3.07;;
27161;SDS011;54464;50.558;9.704;2023-01-28T08:00:23;6.73;;;3.40;;
27161;SDS011;54464;50.558;9.704;2023-01-28T08:02:54;3.77;;;3.40;;
27161;SDS011;54464;50.558;9.704;2023-01-28T08:05:25;4.57;;;3.60;;
27161;SDS011;54464;50.558;9.704;2023-01-28T08:07:53;4.30;;;3.73;;
27161;SDS011;54464;50.558;9.704;2023-01-28T08:10:19;4.90;;;3.60;;
27161;SDS011;54464;50.558;9.704;2023-01-28T08:12:52;3.60;;;3.30;;
27161;SDS011;54464;50.558;9.704;2023-01-28T08:15:18;4.60;;;3.30;;
27161;SDS011;54464;50.558;9.704;2023-01-28T08:17:44;4.33;;;3.60;;
27161;SDS011;54464;50.558;9.704;2023-01-28T08:20:10;3.87;;;3.43;;
27161;SDS011;54464;50.558;9.704;2023-01-28T08:22:36;4.93;;;3.67;;
27161;SDS011;54464;50.558;9.704;2023-01-28T08:25:02;4.60;;;3.67;;
27161;SDS011;54464;50.558;9.704;2023-01-28T08:27:27;3.00;;;2.80;;
27161;SDS011;54464;50.558;9.704;2023-01-28T08:29:53;3.80;;;2.87;;
27161;SDS011;54464;50.558;9.704;2023-01-28T08:32:19;3.00;;;2.70;;
27161;SDS011;54464;50.558;9.704;2023-01-28T08:34:45;3.20;;;2.90;;
27161;SDS011;54464;50.558;9.704;2023-01-28T08:37:10;5.80;;;3.50;;
27161;SDS011;54464;50.558;9.704;2023-01-28T08:39:36;3.80;;;3.30;;
27161;SDS011;54464;50.558;9.704;2023-01-28T08:42:02;3.00;;;2.70;;
27161;SDS011;54464;50.558;9.704;2023-01-28T08:44:29;3.13;;;2.73;;
27161;SDS011;54464;50.558;9.704;2023-01-28T08:46:54;5.23;;;3.20;;
27161;SDS011;54464;50.558;9.704;2023-01-28T08:49:20;4.67;;;3.00;;
27161;SDS011;54464;50.558;9.704;2023-01-28T08:51:46;3.20;;;2.90;;
27161;SDS011;54464;50.558;9.704;2023-01-28T08:54:11;4.23;;;3.10;;
27161;SDS011;54464;50.558;9.704;2023-01-28T08:56:37;4.23;;;3.10;;
27161;SDS011;54464;50.558;9.704;2023-01-28T08:59:03;3.27;;;2.87;;
27161;SDS011;54464;50.558;9.704;2023-01-28T09:01:28;3.37;;;2.90;;
27161;SDS011;54464;50.558;9.704;2023-01-28T09:03:54;3.17;;;2.87;;
27161;SDS011;54464;50.558;9.704;2023-01-28T09:06:20;4.13;;;2.80;;
27161;SDS011;54464;50.558;9.704;2023-01-28T09:08:45;3.13;;;2.47;;
27161;SDS011;54464;50.558;9.704;2023-01-28T09:11:11;2.50;;;2.30;;
27161;SDS011;54464;50.558;9.704;2023-01-28T09:13:37;2.37;;;2.17;;
27161;SDS011;54464;50.558;9.704;2023-01-28T09:16:05;2.97;;;2.47;;
27161;SDS011;54464;50.558;9.704;2023-01-28T09:18:31;3.73;;;2.60;;
27161;SDS011;54464;50.558;9.704;2023-01-28T09:20:57;4.17;;;2.77;;
27161;SDS011;54464;50.558;9.704;2023-01-28T09:23:23;3.17;;;2.70;;
27161;SDS011;54464;50.558;9.704;2023-01-28T09:25:48;2.50;;;2.30;;
27161;SDS011;54464;50.558;9.704;2023-01-28T09:28:14;3.17;;;2.23;;
27161;SDS011;54464;50.558;9.704;2023-01-28T09:30:40;4.87;;;2.67;;
27161;SDS011;54464;50.558;9.704;2023-01-28T09:33:06;4.40;;;2.70;;
27161;SDS011;54464;50.558;9.704;2023-01-28T09:35:32;5.63;;;2.80;;
27161;SDS011;54464;50.558;9.704;2023-01-28T09:37:58;3.50;;;2.67;;
27161;SDS011;54464;50.558;9.704;2023-01-28T09:40:28;3.00;;;2.70;;
27161;SDS011;54464;50.558;9.704;2023-01-28T09:43:00;2.93;;;2.50;;
27161;SDS011;54464;50.558;9.704;2023-01-28T09:45:50;3.77;;;3.03;;
27161;SDS011;54464;50.558;9.704;2023-01-28T09:48:20;3.20;;;2.90;;
27161;SDS011;54464;50.558;9.704;2023-01-28T09:50:49;3.63;;;2.80;;
27161;SDS011;54464;50.558;9.704;2023-01-28T09:53:21;4.43;;;3.00;;
27161;SDS011;54464;50.558;9.704;2023-01-28T09:55:57;3.23;;;2.50;;
27161;SDS011;54464;50.558;9.704;2023-01-28T09:58:26;3.50;;;2.57;;
27161;SDS011;54464;50.558;9.704;2023-01-28T10:11:53;2.90;;;2.63;;
27161;SDS011;54464;50.558;9.704;2023-01-28T10:17:33;2.80;;;2.60;;
27161;SDS011;54464;50.558;9.704;2023-01-28T10:25:35;2.80;;;2.50;;
27161;SDS011;54464;50.558;9.704;2023-01-28T10:28:04;2.30;;;2.10;;
27161;SDS011;54464;50.558;9.704;2023-01-28T10:30:38;3.50;;;2.30;;
27161;SDS011;54464;50.558;9.704;2023-01-28T10:33:15;3.03;;;2.70;;
27161;SDS011;54464;50.558;9.704;2023-01-28T10:36:01;3.40;;;3.07;;
27161;SDS011;54464;50.558;9.704;2023-01-28T10:38:28;5.07;;;3.90;;
27161;SDS011;54464;50.558;9.704;2023-01-28T10:40:57;4.17;;;3.30;;
27161;SDS011;54464;50.558;9.704;2023-01-28T10:43:28;3.27;;;2.70;;
27161;SDS011;54464;50.558;9.704;2023-01-28T10:48:34;3.90;;;3.50;;
27161;SDS011;54464;50.558;9.704;2023-01-28T10:51:04;3.50;;;3.20;;
27161;SDS011;54464;50.558;9.704;2023-01-28T10:56:03;3.37;;;2.70;;
27161;SDS011;54464;50.558;9.704;2023-01-28T10:58:45;4.03;;;2.60;;
27161;SDS011;54464;50.558;9.704;2023-01-28T11:04:30;3.70;;;3.00;;
27161;SDS011;54464;50.558;9.704;2023-01-28T11:07:02;5.13;;;3.43;;
27161;SDS011;54464;50.558;9.704;2023-01-28T11:09:29;3.13;;;2.90;;
27161;SDS011;54464;50.558;9.704;2023-01-28T11:11:57;3.60;;;3.10;;
27161;SDS011;54464;50.558;9.704;2023-01-28T11:14:34;4.40;;;2.90;;
27161;SDS011;54464;50.558;9.704;2023-01-28T11:16:59;3.87;;;2.80;;
27161;SDS011;54464;50.558;9.704;2023-01-28T11:19:27;4.67;;;2.83;;
27161;SDS011;54464;50.558;9.704;2023-01-28T11:21:58;3.20;;;2.43;;
27161;SDS011;54464;50.558;9.704;2023-01-28T11:24:28;3.27;;;2.97;;
27161;SDS011;54464;50.558;9.704;2023-01-28T11:26:56;3.17;;;2.97;;
27161;SDS011;54464;50.558;9.704;2023-01-28T11:29:25;2.77;;;2.57;;
27161;SDS011;54464;50.558;9.704;2023-01-28T11:31:56;3.20;;;2.70;;
27161;SDS011;54464;50.558;9.704;2023-01-28T11:34:27;3.63;;;3.10;;
27161;SDS011;54464;50.558;9.704;2023-01-28T11:37:00;3.67;;;3.00;;
27161;SDS011;54464;50.558;9.704;2023-01-28T11:39:42;4.60;;;3.30;;
27161;SDS011;54464;50.558;9.704;2023-01-28T11:42:18;4.13;;;3.23;;
27161;SDS011;54464;50.558;9.704;2023-01-28T11:44:45;4.50;;;3.30;;
27161;SDS011;54464;50.558;9.704;2023-01-28T11:55:34;3.60;;;3.10;;
27161;SDS011;54464;50.558;9.704;2023-01-28T11:58:33;5.73;;;3.80;;
27161;SDS011;54464;50.558;9.704;2023-01-28T12:04:35;4.77;;;3.90;;
27161;SDS011;54464;50.558;9.704;2023-01-28T12:10:32;4.03;;;3.63;;
27161;SDS011;54464;50.558;9.704;2023-01-28T12:24:14;5.00;;;4.10;;
27161;SDS011;54464;50.558;9.704;2023-01-28T12:26:51;4.33;;;3.47;;
27161;SDS011;54464;50.558;9.704;2023-01-28T12:32:21;4.13;;;3.60;;
27161;SDS011;54464;50.558;9.704;2023-01-28T12:35:27;2.73;;;2.53;;
27161;SDS011;54464;50.558;9.704;2023-01-28T12:48:53;4.80;;;3.20;;
27161;SDS011;54464;50.558;9.704;2023-01-28T12:51:40;5.50;;;4.47;;
27161;SDS011;54464;50.558;9.704;2023-01-28T12:54:26;6.70;;;3.93;;
27161;SDS011;54464;50.558;9.704;2023-01-28T12:56:58;4.03;;;3.40;;
27161;SDS011;54464;50.558;9.704;2023-01-28T12:59:38;3.87;;;3.03;;
27161;SDS011;54464;50.558;9.704;2023-01-28T13:09:47;3.80;;;3.10;;
27161;SDS011;54464;50.558;9.704;2023-01-28T13:12:17;4.53;;;2.93;;
27161;SDS011;54464;50.558;9.704;2023-01-28T13:14:44;3.73;;;2.87;;
27161;SDS011;54464;50.558;9.704;2023-01-28T13:17:24;3.77;;;3.27;;
27161;SDS011;54464;50.558;9.704;2023-01-28T13:19:50;4.63;;;3.50;;
27161;SDS011;54464;50.558;9.704;2023-01-28T13:22:32;5.77;;;3.80;;
27161;SDS011;54464;50.558;9.704;2023-01-28T13:25:18;4.77;;;3.73;;
27161;SDS011;54464;50.558;9.704;2023-01-28T13:27:55;5.43;;;3.80;;
27161;SDS011;54464;50.558;9.704;2023-01-28T13:30:30;4.87;;;4.00;;
27161;SDS011;54464;50.558;9.704;2023-01-28T13:35:57;6.37;;;4.67;;
27161;SDS011;54464;50.558;9.704;2023-01-28T13:38:58;6.57;;;3.93;;
27161;SDS011;54464;50.558;9.704;2023-01-28T13:41:35;6.10;;;3.90;;
27161;SDS011;54464;50.558;9.704;2023-01-28T13:46:49;4.70;;;4.30;;
27161;SDS011;54464;50.558;9.704;2023-01-28T13:49:16;5.00;;;4.50;;
27161;SDS011;54464;50.558;9.704;2023-01-28T13:52:49;5.10;;;4.60;;
27161;SDS011;54464;50.558;9.704;2023-01-28T13:55:04;5.87;;;4.70;;
27161;SDS011;54464;50.558;9.704;2023-01-28T13:58:04;9.60;;;6.07;;
27161;SDS011;54464;50.558;9.704;2023-01-28T14:08:27;5.80;;;5.30;;
27161;SDS011;54464;50.558;9.704;2023-01-28T14:17:03;6.40;;;5.33;;
27161;SDS011;54464;50.558;9.704;2023-01-28T14:19:41;6.47;;;5.60;;
27161;SDS011;54464;50.558;9.704;2023-01-28T14:22:09;8.47;;;5.77;;
27161;SDS011;54464;50.558;9.704;2023-01-28T14:24:41;9.87;;;6.50;;
27161;SDS011;54464;50.558;9.704;2023-01-28T14:27:21;8.33;;;6.03;;
27161;SDS011;54464;50.558;9.704;2023-01-28T14:32:30;7.37;;;5.97;;
27161;SDS011;54464;50.558;9.704;2023-01-28T14:34:58;9.73;;;6.60;;
27161;SDS011;54464;50.558;9.704;2023-01-28T14:37:29;7.67;;;6.47;;
27161;SDS011;54464;50.558;9.704;2023-01-28T14:42:43;7.80;;;6.27;;
27161;SDS011;54464;50.558;9.704;2023-01-28T14:56:18;6.70;;;5.43;;
27161;SDS011;54464;50.558;9.704;2023-01-28T15:01:57;7.03;;;5.70;;
27161;SDS011;54464;50.558;9.704;2023-01-28T15:04:24;7.83;;;5.93;;
27161;SDS011;54464;50.558;9.704;2023-01-28T15:06:55;7.87;;;6.23;;
27161;SDS011;54464;50.558;9.704;2023-01-28T15:09:22;7.37;;;5.87;;
27161;SDS011;54464;50.558;9.704;2023-01-28T15:11:49;6.67;;;5.73;;
27161;SDS011;54464;50.558;9.704;2023-01-28T15:14:21;9.13;;;6.33;;
27161;SDS011;54464;50.558;9.704;2023-01-28T15:16:51;8.10;;;6.50;;
27161;SDS011;54464;50.558;9.704;2023-01-28T15:19:17;8.07;;;6.37;;
27161;SDS011;54464;50.558;9.704;2023-01-28T15:21:58;7.10;;;6.13;;
27161;SDS011;54464;50.558;9.704;2023-01-28T15:24:26;7.70;;;6.67;;
27161;SDS011;54464;50.558;9.704;2023-01-28T15:26:52;9.20;;;6.80;;
27161;SDS011;54464;50.558;9.704;2023-01-28T15:29:31;8.37;;;6.40;;
27161;SDS011;54464;50.558;9.704;2023-01-28T15:31:59;8.83;;;7.70;;
27161;SDS011;54464;50.558;9.704;2023-01-28T15:34:25;9.73;;;7.30;;
27161;SDS011;54464;50.558;9.704;2023-01-28T15:36:57;9.77;;;7.17;;
27161;SDS011;54464;50.558;9.704;2023-01-28T15:39:25;7.57;;;6.43;;
27161;SDS011;54464;50.558;9.704;2023-01-28T15:44:29;7.80;;;7.00;;
27161;SDS011;54464;50.558;9.704;2023-01-28T15:46:59;8.43;;;7.43;;
27161;SDS011;54464;50.558;9.704;2023-01-28T15:49:27;11.33;;;7.53;;
27161;SDS011;54464;50.558;9.704;2023-01-28T15:51:56;10.47;;;7.60;;
27161;SDS011;54464;50.558;9.704;2023-01-28T15:54:22;8.43;;;7.20;;
27161;SDS011;54464;50.558;9.704;2023-01-28T15:56:48;8.97;;;7.10;;
27161;SDS011;54464;50.558;9.704;2023-01-28T16:01:40;8.20;;;6.90;;
27161;SDS011;54464;50.558;9.704;2023-01-28T16:04:18;8.67;;;7.07;;
27161;SDS011;54464;50.558;9.704;2023-01-28T16:06:50;9.00;;;7.30;;
27161;SDS011;54464;50.558;9.704;2023-01-28T16:09:19;7.97;;;6.80;;
27161;SDS011;54464;50.558;9.704;2023-01-28T16:11:49;8.23;;;7.30;;
27161;SDS011;54464;50.558;9.704;2023-01-28T16:14:19;9.80;;;7.97;;
27161;SDS011;54464;50.558;9.704;2023-01-28T16:16:52;11.87;;;7.57;;
27161;SDS011;54464;50.558;9.704;2023-01-28T16:19:25;9.80;;;6.83;;
27161;SDS011;54464;50.558;9.704;2023-01-28T16:22:01;8.83;;;7.00;;
27161;SDS011;54464;50.558;9.704;2023-01-28T16:24:28;9.57;;;7.93;;
27161;SDS011;54464;50.558;9.704;2023-01-28T16:27:17;10.50;;;8.20;;
27161;SDS011;54464;50.558;9.704;2023-01-28T16:29:48;8.53;;;6.73;;
27161;SDS011;54464;50.558;9.704;2023-01-28T16:34:57;10.20;;;7.30;;
27161;SDS011;54464;50.558;9.704;2023-01-28T16:37:23;9.47;;;7.67;;
27161;SDS011;54464;50.558;9.704;2023-01-28T16:39:49;10.00;;;7.87;;
27161;SDS011;54464;50.558;9.704;2023-01-28T16:42:14;10.87;;;8.37;;
27161;SDS011;54464;50.558;9.704;2023-01-28T16:44:40;10.20;;;8.23;;
27161;SDS011;54464;50.558;9.704;2023-01-28T16:47:06;10.40;;;8.60;;
27161;SDS011;54464;50.558;9.704;2023-01-28T16:49:32;11.20;;;8.93;;
27161;SDS011;54464;50.558;9.704;2023-01-28T16:51:58;10.53;;;8.07;;
27161;SDS011;54464;50.558;9.704;2023-01-28T16:54:24;12.00;;;8.50;;
27161;SDS011;54464;50.558;9.704;2023-01-28T16:56:51;12.87;;;10.60;;
27161;SDS011;54464;50.558;9.704;2023-01-28T16:59:18;12.53;;;10.13;;
27161;SDS011;54464;50.558;9.704;2023-01-28T17:01:43;12.40;;;9.23;;
27161;SDS011;54464;50.558;9.704;2023-01-28T17:04:09;16.97;;;11.63;;
27161;SDS011;54464;50.558;9.704;2023-01-28T17:06:36;19.00;;;13.50;;
27161;SDS011;54464;50.558;9.704;2023-01-28T17:09:03;10.23;;;8.00;;
27161;SDS011;54464;50.558;9.704;2023-01-28T17:11:29;10.80;;;8.27;;
27161;SDS011;54464;50.558;9.704;2023-01-28T17:13:55;10.80;;;8.57;;
27161;SDS011;54464;50.558;9.704;2023-01-28T17:16:21;10.83;;;8.30;;
27161;SDS011;54464;50.558;9.704;2023-01-28T17:18:50;12.63;;;8.93;;
27161;SDS011;54464;50.558;9.704;2023-01-28T17:21:16;13.43;;;9.30;;
27161;SDS011;54464;50.558;9.704;2023-01-28T17:23:42;15.33;;;10.80;;